Catawissa, Missouri
Current Conditions -  °F | °C
As of 4:55 PM on Wednesday 22 Oct 2014 (Local Time) from KFYG Reporting Station
Haze Haze  
Wind Chill: 64°   Ceiling: Unl
Heat Index: 64°   Visibility: 5mi
Dew Point: 41°   Wind: 5mph
Humidity: 42%   Direction: 120°ESE
Pressure: 30.2"   Gusts: NA
Location:  38.42°N, 90.78°W
Report Text: KFYG 222155Z AUTO 12004KT 5SM HZ CLR 18/05 A3020 RMK AO2
Loading
Personal Weather Stations






























Interactive Weather Map
Tropical Storm Tracking
New forecast layout! Learn more

10-Day Weather Forecast

Advertisements
Track Severe Weather on mobile